createdAt,value
2023-05-05T00:02:40.173Z,12.855828
2023-05-05T00:07:41.547Z,13.492836
2023-05-05T00:12:42.916Z,11.920142
2023-05-05T00:17:44.346Z,12.578442
2023-05-05T00:22:45.752Z,12.832272
2023-05-05T00:27:47.213Z,12.500388
2023-05-05T00:32:48.590Z,12.290862
2023-05-05T00:37:49.904Z,12.100482
2023-05-05T00:42:51.137Z,11.774948
2023-05-05T00:47:52.497Z,11.843624
2023-05-05T00:52:53.877Z,12.125368
2023-05-05T00:57:55.282Z,12.178764
2023-05-05T01:02:57.515Z,12.350446
2023-05-05T01:07:58.856Z,12.544692
2023-05-05T01:13:00.305Z,12.447602
2023-05-05T01:18:01.720Z,12.702954
2023-05-05T01:23:03.057Z,12.605224
2023-05-05T01:28:04.630Z,12.833492
2023-05-05T01:33:06.400Z,12.97984
2023-05-05T01:38:08.003Z,12.987168
2023-05-05T01:43:09.623Z,12.543362
2023-05-05T01:48:11.529Z,12.662692
2023-05-05T01:53:12.787Z,12.992812
2023-05-05T01:58:14.025Z,12.013432
2023-05-05T02:03:15.557Z,11.066742
2023-05-05T02:08:16.896Z,11.5753
2023-05-05T02:13:18.424Z,11.323586
2023-05-05T02:18:19.729Z,11.860014
2023-05-05T02:23:20.965Z,12.221466
2023-05-05T02:28:22.197Z,13.147818
2023-05-05T02:33:23.473Z,12.690768
2023-05-05T02:38:24.721Z,13.26864
2023-05-05T02:43:26.058Z,13.075504
2023-05-05T02:48:27.368Z,13.114178
2023-05-05T02:53:28.700Z,12.934286
2023-05-05T02:58:29.998Z,13.454272
2023-05-05T03:03:31.348Z,12.940394
2023-05-05T03:08:32.657Z,13.055314
2023-05-05T03:13:33.866Z,12.846464
2023-05-05T03:18:35.168Z,12.870388
2023-05-05T03:23:36.880Z,12.754666
2023-05-05T03:28:38.197Z,12.752902
2023-05-05T03:33:39.946Z,12.968808
2023-05-05T03:38:41.645Z,12.738166
2023-05-05T03:43:43.282Z,12.905262
2023-05-05T03:48:44.876Z,12.553512
2023-05-05T03:53:46.115Z,12.699154
2023-05-05T03:58:47.411Z,11.916842
2023-05-05T04:03:49.021Z,12.575576
2023-05-05T04:08:50.358Z,12.429066
2023-05-05T04:13:51.641Z,12.052606
2023-05-05T04:18:52.939Z,11.514628
2023-05-05T04:23:54.198Z,11.88931
2023-05-05T04:28:55.462Z,12.01438
2023-05-05T04:33:56.745Z,12.151298
2023-05-05T04:38:58.012Z,12.140876
2023-05-05T04:43:59.318Z,12.390936
2023-05-05T04:49:00.719Z,11.960808
2023-05-05T04:54:02.006Z,12.11588
2023-05-05T04:59:03.323Z,12.952308
2023-05-05T05:04:05.111Z,12.280058
2023-05-05T05:09:06.588Z,12.08543
2023-05-05T05:14:07.853Z,12.082784
2023-05-05T05:19:09.423Z,11.976698
2023-05-05T05:24:10.684Z,12.4054
2023-05-05T05:29:12.230Z,12.684594
2023-05-05T05:34:13.837Z,12.649896
2023-05-05T05:39:15.248Z,12.765698
2023-05-05T05:44:16.828Z,13.198648
2023-05-05T05:49:18.650Z,13.176312
2023-05-05T05:54:20.398Z,13.574388
2023-05-05T05:59:22.194Z,13.628056
2023-05-05T06:04:23.767Z,13.71307
2023-05-05T06:09:25.429Z,13.58994
2023-05-05T06:14:26.965Z,14.63687
2023-05-05T06:19:28.554Z,14.623626
2023-05-05T06:24:30.217Z,15.73025
2023-05-05T06:29:31.815Z,15.623892
2023-05-05T06:34:33.160Z,15.461382
2023-05-05T06:39:34.798Z,16.360582
2023-05-05T06:44:36.046Z,16.755416
2023-05-05T06:49:37.454Z,16.54445
2023-05-05T06:54:38.727Z,17.679164
2023-05-05T06:59:40.037Z,16.674568
2023-05-05T07:04:41.488Z,17.44958
2023-05-05T07:09:42.928Z,18.244024
2023-05-05T07:14:44.589Z,18.07359
2023-05-05T07:19:46.345Z,18.434432
2023-05-05T07:24:49.672Z,18.63879
2023-05-05T07:29:51.115Z,19.282734
2023-05-05T07:34:52.421Z,19.391046
2023-05-05T07:39:53.832Z,19.546852
2023-05-05T07:44:55.117Z,20.670576
2023-05-05T07:49:56.396Z,20.270694
2023-05-05T07:54:57.865Z,20.806896
2023-05-05T07:59:59.132Z,21.460122
2023-05-05T08:05:00.406Z,22.109318
2023-05-05T08:10:01.845Z,22.17798
2023-05-05T08:15:03.467Z,21.86436
2023-05-05T08:20:04.847Z,22.72687
2023-05-05T08:25:06.473Z,22.783754
2023-05-05T08:30:08.277Z,22.191862
2023-05-05T08:35:10.133Z,22.391416
2023-05-05T08:40:12.038Z,23.225566
2023-05-05T08:45:13.637Z,23.483334
2023-05-05T08:50:15.305Z,23.197762
2023-05-05T08:55:16.894Z,23.139494
2023-05-05T09:00:18.690Z,23.106832
2023-05-05T09:05:20.489Z,23.616832
2023-05-05T09:10:22.332Z,23.561658
2023-05-05T09:15:23.978Z,24.490972
2023-05-05T09:20:25.652Z,24.530446
2023-05-05T09:25:27.230Z,24.035902
2023-05-05T09:30:28.793Z,24.51613
2023-05-05T09:35:30.380Z,24.440208
2023-05-05T09:40:31.884Z,25.1071
2023-05-05T09:45:33.424Z,24.88601
2023-05-05T09:50:34.975Z,25.092974
2023-05-05T09:55:36.634Z,24.524068
2023-05-05T10:00:38.121Z,25.410978
2023-05-05T10:05:39.706Z,25.086352
2023-05-05T10:10:41.211Z,24.515194
2023-05-05T10:15:43.179Z,24.142274
2023-05-05T10:20:44.516Z,24.849766
2023-05-05T10:25:45.993Z,25.495082
2023-05-05T10:30:47.484Z,25.792582
2023-05-05T10:35:49.114Z,26.049034
2023-05-05T10:40:50.581Z,25.48542
2023-05-05T10:45:52.414Z,24.92083
2023-05-05T10:50:53.964Z,25.449664
2023-05-05T10:55:55.226Z,25.665014
2023-05-05T11:00:56.628Z,25.784196
2023-05-05T11:05:58.055Z,25.23996
2023-05-05T11:10:59.334Z,25.308622
2023-05-05T11:16:00.718Z,25.58821
2023-05-05T11:21:02.002Z,25.493318
2023-05-05T11:26:03.413Z,26.308132
2023-05-05T11:31:04.726Z,25.017744
2023-05-05T11:36:06.948Z,25.29489
2023-05-05T11:41:09.000Z,25.560894
2023-05-05T11:46:10.669Z,25.811566
2023-05-05T11:51:12.337Z,26.496804
2023-05-05T11:56:14.002Z,25.968458
2023-05-05T12:01:15.605Z,26.165122
2023-05-05T12:06:17.199Z,26.884108
2023-05-05T12:11:18.953Z,25.446964
2023-05-05T12:16:20.554Z,25.275268
2023-05-05T12:21:22.140Z,25.523334
2023-05-05T12:26:23.784Z,25.997822
2023-05-05T12:31:25.484Z,24.921712
2023-05-05T12:36:29.211Z,23.69388
2023-05-05T12:41:32.116Z,24.137022
2023-05-05T12:46:33.837Z,24.227898
2023-05-05T12:51:35.617Z,24.01206
2023-05-05T12:56:37.178Z,23.716772
2023-05-05T13:01:38.821Z,23.463862
2023-05-05T13:06:40.559Z,23.4155
2023-05-05T13:11:42.419Z,23.443806
2023-05-05T13:16:44.056Z,22.801354
2023-05-05T13:21:45.654Z,22.573846
2023-05-05T13:26:47.239Z,20.712316
2023-05-05T13:31:49.152Z,19.115272
2023-05-05T13:36:50.913Z,17.847766
2023-05-05T13:41:52.465Z,15.38477
2023-05-05T13:46:53.987Z,14.092882
2023-05-05T13:51:55.386Z,12.408252
2023-05-05T13:56:56.674Z,12.975364
2023-05-05T14:01:57.940Z,12.900772
2023-05-05T14:06:59.300Z,13.396018
2023-05-05T14:12:00.678Z,14.872018
2023-05-05T14:17:02.207Z,15.356966
2023-05-05T14:22:03.674Z,15.002474
2023-05-05T14:27:04.955Z,16.72099
2023-05-05T14:32:06.265Z,16.968064
2023-05-05T14:37:07.959Z,16.597588
2023-05-05T14:42:09.510Z,17.050324
2023-05-05T14:47:10.967Z,16.063206
2023-05-05T14:52:12.369Z,17.166574
2023-05-05T14:57:13.638Z,16.998162
2023-05-05T15:02:15.214Z,16.57049
2023-05-05T15:07:16.749Z,16.96109
2023-05-05T15:12:18.322Z,16.723378
2023-05-05T15:17:19.927Z,17.280274
2023-05-05T15:22:21.572Z,16.50385
2023-05-05T15:27:23.277Z,16.160472
2023-05-05T15:32:24.874Z,15.924444
2023-05-05T15:37:26.435Z,15.643134
2023-05-05T15:42:28.153Z,15.202408
2023-05-05T15:47:29.634Z,15.314764
2023-05-05T15:52:31.142Z,15.076266
2023-05-05T15:57:32.742Z,15.781448
2023-05-05T16:02:34.436Z,15.596522
2023-05-05T16:07:35.898Z,15.392708
2023-05-05T16:12:37.507Z,14.532982
2023-05-05T16:17:39.095Z,14.078498
2023-05-05T16:22:40.720Z,14.556906
2023-05-05T16:27:42.336Z,13.309144
2023-05-05T16:32:43.988Z,14.513998
2023-05-05T16:37:45.667Z,14.98155
2023-05-05T16:42:47.331Z,14.698572
2023-05-05T16:47:49.185Z,14.616042
2023-05-05T16:52:50.996Z,15.106282
2023-05-05T16:57:52.586Z,14.609948
2023-05-05T17:02:54.157Z,14.33393
2023-05-05T17:07:55.463Z,14.286274
2023-05-05T17:12:56.753Z,14.570488
2023-05-05T17:17:58.134Z,14.401114
2023-05-05T17:22:59.487Z,14.261646
2023-05-05T17:28:00.773Z,14.010094
2023-05-05T17:33:02.288Z,13.931878
2023-05-05T17:38:03.674Z,14.254142
2023-05-05T17:43:04.929Z,13.785626
2023-05-05T17:48:06.301Z,13.056968
2023-05-05T17:53:07.576Z,13.803986
2023-05-05T17:58:08.805Z,13.825072
2023-05-05T18:03:10.182Z,13.270756
2023-05-05T18:08:11.648Z,13.041798
2023-05-05T18:13:13.016Z,14.004868
2023-05-05T18:18:14.292Z,13.447282
2023-05-05T18:23:15.614Z,13.47183
2023-05-05T18:28:16.896Z,13.356204
2023-05-05T18:33:18.186Z,13.082126
2023-05-05T18:38:19.672Z,11.916004
2023-05-05T18:43:21.275Z,11.99544
2023-05-05T18:48:22.854Z,12.92715
2023-05-05T18:53:24.788Z,12.944098
2023-05-05T18:58:26.388Z,13.551266
2023-05-05T19:03:28.223Z,14.479234
2023-05-05T19:08:29.725Z,13.84768
2023-05-05T19:13:31.299Z,13.823742
2023-05-05T19:18:32.872Z,14.248416
2023-05-05T19:23:34.730Z,13.782708
2023-05-05T19:28:36.301Z,13.89022
2023-05-05T19:33:37.923Z,14.03559
2023-05-05T19:38:40.063Z,13.324858
2023-05-05T19:43:41.611Z,13.108776
2023-05-05T19:48:43.193Z,13.639712
2023-05-05T19:53:44.875Z,13.720478
2023-05-05T19:58:46.449Z,13.773874
2023-05-05T20:03:50.829Z,14.498204
2023-05-05T20:08:52.623Z,13.85023
2023-05-05T20:13:54.561Z,13.662224
2023-05-05T20:18:56.052Z,14.082106
2023-05-05T20:23:57.474Z,13.983238
2023-05-05T20:28:58.823Z,12.67584
2023-05-05T20:34:00.191Z,13.254962
2023-05-05T20:39:01.597Z,13.211172
2023-05-05T20:44:03.022Z,13.766098
2023-05-05T20:49:04.421Z,13.530164
2023-05-05T20:54:05.918Z,14.143182
2023-05-05T20:59:07.355Z,13.721794
2023-05-05T21:04:08.780Z,12.563728
2023-05-05T21:09:10.340Z,12.117548
2023-05-05T21:14:11.724Z,13.948202
2023-05-05T21:19:13.073Z,13.776696
2023-05-05T21:24:14.321Z,13.662658
2023-05-05T21:29:15.611Z,12.797206
2023-05-05T21:34:17.018Z,12.896766
2023-05-05T21:39:18.295Z,12.987248
2023-05-05T21:44:19.862Z,13.8451
2023-05-05T21:49:21.318Z,14.136656
2023-05-05T21:54:22.661Z,13.110716
2023-05-05T21:59:24.207Z,13.176474
2023-05-05T22:04:25.453Z,13.130854
2023-05-05T22:09:26.798Z,12.830478
2023-05-05T22:14:28.061Z,13.34049
2023-05-05T22:19:29.297Z,13.172336
2023-05-05T22:24:30.596Z,12.598154
2023-05-05T22:29:31.966Z,13.54668
2023-05-05T22:34:33.289Z,13.06298
2023-05-05T22:39:34.864Z,13.262642
2023-05-05T22:44:36.149Z,12.971086
2023-05-05T22:49:37.580Z,12.760568
2023-05-05T22:54:39.125Z,13.061488
2023-05-05T22:59:40.571Z,13.024482
2023-05-05T23:04:41.948Z,13.213994
2023-05-05T23:09:43.414Z,13.153624
2023-05-05T23:14:44.682Z,13.156012
2023-05-05T23:19:45.933Z,12.573892
2023-05-05T23:24:47.236Z,12.974614
2023-05-05T23:29:48.466Z,12.631264
2023-05-05T23:34:49.878Z,12.507686
2023-05-05T23:39:51.251Z,12.660832
2023-05-05T23:44:52.517Z,13.375012
2023-05-05T23:49:53.877Z,12.817506
2023-05-05T23:54:55.230Z,12.595346
2023-05-05T23:59:56.529Z,12.473098
